createdAt,value
2023-04-17T00:00:32.792Z,31.75
2023-04-17T00:01:32.811Z,31.80
2023-04-17T00:02:32.908Z,31.79
2023-04-17T00:03:32.952Z,31.78
2023-04-17T00:04:33.042Z,31.78
2023-04-17T00:05:32.874Z,31.78
2023-04-17T00:06:32.857Z,31.80
2023-04-17T00:07:32.913Z,31.77
2023-04-17T00:08:32.952Z,31.78
2023-04-17T00:09:32.960Z,31.78
2023-04-17T00:10:32.993Z,31.77
2023-04-17T00:11:32.984Z,31.80
2023-04-17T00:12:33.005Z,31.78
2023-04-17T00:13:33.043Z,31.78
2023-04-17T00:14:33.041Z,31.80
2023-04-17T00:15:33.101Z,31.79
2023-04-17T00:16:33.212Z,31.80
2023-04-17T00:17:33.193Z,31.80
2023-04-17T00:18:33.132Z,31.81
2023-04-17T00:19:33.167Z,31.81
2023-04-17T00:20:33.186Z,31.80
2023-04-17T00:21:33.165Z,31.81
2023-04-17T00:22:33.207Z,31.83
2023-04-17T00:23:33.167Z,31.81
2023-04-17T00:24:33.213Z,31.81
2023-04-17T00:25:33.199Z,31.82
2023-04-17T00:26:33.202Z,31.80
2023-04-17T00:27:33.209Z,31.82
2023-04-17T00:28:33.177Z,31.79
2023-04-17T00:29:33.216Z,31.84
2023-04-17T00:30:33.229Z,31.83
2023-04-17T00:31:33.240Z,31.82
2023-04-17T00:32:33.261Z,31.83
2023-04-17T00:33:33.297Z,31.83
2023-04-17T00:34:33.255Z,31.83
2023-04-17T00:35:33.242Z,31.83
2023-04-17T00:36:33.264Z,31.82
2023-04-17T00:37:33.265Z,31.83
2023-04-17T00:38:33.249Z,31.86
2023-04-17T00:39:33.283Z,31.84
2023-04-17T00:40:33.279Z,31.87
2023-04-17T00:41:33.294Z,31.85
2023-04-17T00:42:33.318Z,31.85
2023-04-17T00:43:33.319Z,31.85
2023-04-17T00:44:33.366Z,31.86
2023-04-17T00:45:33.448Z,31.86
2023-04-17T00:46:33.411Z,31.86
2023-04-17T00:47:33.523Z,31.85
2023-04-17T00:48:33.451Z,31.87
2023-04-17T00:49:33.498Z,31.86
2023-04-17T00:50:33.573Z,31.87
2023-04-17T00:51:33.489Z,31.88
2023-04-17T00:52:33.507Z,31.88
2023-04-17T00:53:33.553Z,31.89
2023-04-17T00:54:33.518Z,31.87
2023-04-17T00:55:33.495Z,31.88
2023-04-17T00:56:33.500Z,31.88
2023-04-17T00:57:33.557Z,31.86
2023-04-17T00:58:33.513Z,31.87
2023-04-17T00:59:33.577Z,31.89
2023-04-17T01:00:33.562Z,31.89
2023-04-17T01:01:33.582Z,31.88
2023-04-17T01:02:33.672Z,31.88
2023-04-17T01:03:33.747Z,31.91
2023-04-17T01:04:33.654Z,31.88
2023-04-17T01:05:33.621Z,31.89
2023-04-17T01:06:33.588Z,31.90
2023-04-17T01:07:33.613Z,31.91
2023-04-17T01:08:33.570Z,31.92
2023-04-17T01:09:33.590Z,31.92
2023-04-17T01:10:33.600Z,31.92
2023-04-17T01:11:33.651Z,31.87
2023-04-17T01:12:33.638Z,31.91
2023-04-17T01:13:33.646Z,31.90
2023-04-17T01:14:33.652Z,31.90
2023-04-17T01:15:33.675Z,31.93
2023-04-17T01:16:33.721Z,31.91
2023-04-17T01:17:33.719Z,31.94
2023-04-17T01:18:33.650Z,31.92
2023-04-17T01:19:33.660Z,31.92
2023-04-17T01:20:33.679Z,31.90
2023-04-17T01:21:33.658Z,31.93
2023-04-17T01:22:33.664Z,31.90
2023-04-17T01:23:33.668Z,31.91
2023-04-17T01:24:33.686Z,31.92
2023-04-17T01:25:33.692Z,31.93
2023-04-17T01:26:33.688Z,31.93
2023-04-17T01:27:33.678Z,31.94
2023-04-17T01:28:33.704Z,31.93
2023-04-17T01:29:33.693Z,31.94
2023-04-17T01:30:33.732Z,31.94
2023-04-17T01:31:33.721Z,31.94
2023-04-17T01:32:33.782Z,31.95
2023-04-17T01:33:33.749Z,31.94
2023-04-17T01:34:35.634Z,31.96
2023-04-17T01:35:33.722Z,31.96
2023-04-17T01:36:33.741Z,31.97
2023-04-17T01:37:33.711Z,31.95
2023-04-17T01:38:33.716Z,31.95
2023-04-17T01:39:33.703Z,31.97
2023-04-17T01:40:33.708Z,31.97
2023-04-17T01:41:33.718Z,31.98
2023-04-17T01:42:33.663Z,31.95
2023-04-17T01:43:33.687Z,31.97
2023-04-17T01:44:33.663Z,31.98
2023-04-17T01:45:33.680Z,31.98
2023-04-17T01:46:33.756Z,31.99
2023-04-17T01:47:33.644Z,31.97
2023-04-17T01:48:33.640Z,31.98
2023-04-17T01:49:33.612Z,31.98
2023-04-17T01:50:33.641Z,31.98
2023-04-17T01:51:33.612Z,31.99
2023-04-17T01:52:33.639Z,31.97
2023-04-17T01:53:33.616Z,31.99
2023-04-17T01:54:33.623Z,31.98
2023-04-17T01:55:33.579Z,32.01
2023-04-17T01:56:33.595Z,31.99
2023-04-17T01:57:33.589Z,32.01
2023-04-17T01:58:33.608Z,32.00
2023-04-17T01:59:33.591Z,32.01
2023-04-17T02:00:33.573Z,32.01
2023-04-17T02:01:33.654Z,32.01
2023-04-17T02:02:33.673Z,31.99
2023-04-17T02:03:33.707Z,32.01
2023-04-17T02:04:33.572Z,32.00
2023-04-17T02:05:33.545Z,32.01
2023-04-17T02:06:33.527Z,32.03
2023-04-17T02:07:33.539Z,32.01
2023-04-17T02:08:33.588Z,32.00
2023-04-17T02:09:33.515Z,32.03
2023-04-17T02:10:33.523Z,32.01
2023-04-17T02:11:33.504Z,32.03
2023-04-17T02:12:33.491Z,31.98
2023-04-17T02:13:33.494Z,32.02
2023-04-17T02:14:33.510Z,32.04
2023-04-17T02:15:33.613Z,32.02
2023-04-17T02:16:33.569Z,32.01
2023-04-17T02:17:33.500Z,32.03
2023-04-17T02:18:33.472Z,32.02
2023-04-17T02:19:33.461Z,32.05
2023-04-17T02:20:33.456Z,32.02
2023-04-17T02:21:33.443Z,32.02
2023-04-17T02:22:33.456Z,32.02
2023-04-17T02:23:33.402Z,32.03
2023-04-17T02:24:33.428Z,32.04
2023-04-17T02:25:33.409Z,32.03
2023-04-17T02:26:33.421Z,32.04
2023-04-17T02:27:33.386Z,32.03
2023-04-17T02:28:33.395Z,32.01
2023-04-17T02:29:33.394Z,32.04
2023-04-17T02:30:33.406Z,32.04
2023-04-17T02:31:33.433Z,32.05
2023-04-17T02:32:33.494Z,32.04
2023-04-17T02:33:33.359Z,32.04
2023-04-17T02:34:33.320Z,32.03
2023-04-17T02:35:33.347Z,32.05
2023-04-17T02:36:33.344Z,32.03
2023-04-17T02:37:33.345Z,32.05
2023-04-17T02:38:33.309Z,32.03
2023-04-17T02:39:33.281Z,32.02
2023-04-17T02:40:33.381Z,32.03
2023-04-17T02:41:33.317Z,32.05
2023-04-17T02:42:33.300Z,32.04
2023-04-17T02:43:33.292Z,32.04
2023-04-17T02:44:33.261Z,32.01
2023-04-17T02:45:33.285Z,32.05
2023-04-17T02:46:33.288Z,32.04
2023-04-17T02:47:33.348Z,32.04
2023-04-17T02:48:33.262Z,32.04
2023-04-17T02:49:33.240Z,32.04
2023-04-17T02:50:33.249Z,32.04
2023-04-17T02:51:33.217Z,32.06
2023-04-17T02:52:33.275Z,32.04
2023-04-17T02:53:33.216Z,32.04
2023-04-17T02:54:33.195Z,32.02
2023-04-17T02:55:33.177Z,32.03
2023-04-17T02:56:33.176Z,32.05
2023-04-17T02:57:33.192Z,32.02
2023-04-17T02:58:33.180Z,32.05
2023-04-17T02:59:33.151Z,32.06
2023-04-17T03:00:33.212Z,32.05
2023-04-17T03:01:33.227Z,32.04
2023-04-17T03:02:33.251Z,32.05
2023-04-17T03:03:33.266Z,32.02
2023-04-17T03:04:33.134Z,32.04
2023-04-17T03:05:33.153Z,32.05
2023-04-17T03:06:33.143Z,32.04
2023-04-17T03:07:33.142Z,32.03
2023-04-17T03:08:33.201Z,32.03
2023-04-17T03:09:33.117Z,32.04
2023-04-17T03:10:33.109Z,32.03
2023-04-17T03:11:33.103Z,32.04
2023-04-17T03:12:33.187Z,32.03
2023-04-17T03:13:33.112Z,32.03
2023-04-17T03:14:33.088Z,32.07
2023-04-17T03:15:33.079Z,32.02
2023-04-17T03:16:33.166Z,32.05
2023-04-17T03:17:33.083Z,32.06
2023-04-17T03:18:33.041Z,32.04
2023-04-17T03:19:33.068Z,32.05
2023-04-17T03:20:33.060Z,32.05
2023-04-17T03:21:33.043Z,32.05
2023-04-17T03:22:33.049Z,32.05
2023-04-17T03:23:33.026Z,32.04
2023-04-17T03:24:33.019Z,32.06
2023-04-17T03:25:33.022Z,32.05
2023-04-17T03:26:32.999Z,32.05
2023-04-17T03:27:33.007Z,32.04
2023-04-17T03:28:33.007Z,32.03
2023-04-17T03:29:33.007Z,32.06
2023-04-17T03:30:33.002Z,32.05
2023-04-17T03:31:32.993Z,32.06
2023-04-17T03:32:32.964Z,32.06
2023-04-17T03:33:32.937Z,32.04
2023-04-17T03:34:32.962Z,32.05
2023-04-17T03:35:32.965Z,32.07
2023-04-17T03:36:32.954Z,32.05
2023-04-17T03:37:32.932Z,32.05
2023-04-17T03:38:32.945Z,32.05
2023-04-17T03:39:32.921Z,32.07
2023-04-17T03:40:33.712Z,32.04
2023-04-17T03:41:32.930Z,32.05
2023-04-17T03:42:32.902Z,32.03
2023-04-17T03:43:32.888Z,32.06
2023-04-17T03:44:32.920Z,32.04
2023-04-17T03:45:32.925Z,32.05
2023-04-17T03:46:32.857Z,32.05
2023-04-17T03:47:32.973Z,32.06
2023-04-17T03:48:32.871Z,32.05
2023-04-17T03:49:32.887Z,32.07
2023-04-17T03:50:32.920Z,32.05
2023-04-17T03:51:32.864Z,32.03
2023-04-17T03:52:32.857Z,32.06
2023-04-17T03:53:32.845Z,32.06
2023-04-17T03:54:32.834Z,32.05
2023-04-17T03:55:32.809Z,32.03
2023-04-17T03:56:32.836Z,32.01
2023-04-17T03:57:32.835Z,32.04
2023-04-17T03:58:32.803Z,32.02
2023-04-17T03:59:32.780Z,32.04
2023-04-17T04:00:32.767Z,32.04
2023-04-17T04:01:32.865Z,32.04
2023-04-17T04:02:32.818Z,32.05
2023-04-17T04:03:33.025Z,32.04
2023-04-17T04:04:32.894Z,32.06
2023-04-17T04:05:32.770Z,32.03
2023-04-17T04:06:32.816Z,32.04
2023-04-17T04:07:32.729Z,32.06
2023-04-17T04:08:32.704Z,32.04
2023-04-17T04:09:32.771Z,32.06
2023-04-17T04:10:32.742Z,32.04
2023-04-17T04:11:32.722Z,32.03
2023-04-17T04:12:32.707Z,32.03
2023-04-17T04:13:32.708Z,32.03
2023-04-17T04:14:32.688Z,32.02
2023-04-17T04:15:32.683Z,32.04
2023-04-17T04:16:32.710Z,32.03
2023-04-17T04:17:32.724Z,32.05
2023-04-17T04:18:32.659Z,32.06
2023-04-17T04:19:32.619Z,32.03
2023-04-17T04:20:32.634Z,32.03
2023-04-17T04:21:32.646Z,32.05
2023-04-17T04:22:32.635Z,32.07
2023-04-17T04:23:32.647Z,32.06
2023-04-17T04:24:32.601Z,32.06
2023-04-17T04:25:32.602Z,32.04
2023-04-17T04:26:32.607Z,32.05
2023-04-17T04:27:32.621Z,32.05
2023-04-17T04:28:32.678Z,32.04
2023-04-17T04:29:32.680Z,32.02
2023-04-17T04:30:32.693Z,32.04
2023-04-17T04:31:32.716Z,32.03
2023-04-17T04:32:32.744Z,32.03
2023-04-17T04:33:32.774Z,32.02
2023-04-17T04:34:32.805Z,32.04
2023-04-17T04:35:32.858Z,32.04
2023-04-17T04:36:32.849Z,32.02
2023-04-17T04:37:32.847Z,32.03
2023-04-17T04:38:33.130Z,32.00
2023-04-17T04:39:32.864Z,32.02
2023-04-17T04:40:32.907Z,32.04
2023-04-17T04:41:32.961Z,32.04
2023-04-17T04:42:32.985Z,32.02
2023-04-17T04:43:32.962Z,32.05
2023-04-17T04:44:32.992Z,32.03
2023-04-17T04:45:32.973Z,32.02
2023-04-17T04:46:33.039Z,32.03
2023-04-17T04:47:33.039Z,32.08
2023-04-17T04:48:33.030Z,32.17
2023-04-17T04:49:32.982Z,32.20
2023-04-17T04:50:33.023Z,32.27
2023-04-17T04:51:33.034Z,32.39
2023-04-17T04:52:33.025Z,32.39
2023-04-17T04:53:33.024Z,32.47
2023-04-17T04:54:32.996Z,32.45
2023-04-17T04:55:32.985Z,32.51
2023-04-17T04:56:33.179Z,32.47
2023-04-17T04:57:33.020Z,32.47
2023-04-17T04:58:32.996Z,32.52
2023-04-17T04:59:33.014Z,32.52
2023-04-17T05:00:33.013Z,32.53
2023-04-17T05:01:33.118Z,32.61
2023-04-17T05:02:33.160Z,32.58
2023-04-17T05:03:33.176Z,32.68
2023-04-17T05:04:33.109Z,32.64
2023-04-17T05:05:33.034Z,32.71
2023-04-17T05:06:33.059Z,32.71
2023-04-17T05:07:33.037Z,32.79
2023-04-17T05:08:33.062Z,32.82
2023-04-17T05:09:33.022Z,32.83
2023-04-17T05:10:33.081Z,32.79
2023-04-17T05:11:33.077Z,32.84
2023-04-17T05:12:33.050Z,32.90
2023-04-17T05:13:33.081Z,32.93
2023-04-17T05:14:33.078Z,32.91
2023-04-17T05:15:33.109Z,32.89
2023-04-17T05:16:33.145Z,32.88
2023-04-17T05:17:33.109Z,33.05
2023-04-17T05:18:33.125Z,33.04
2023-04-17T05:19:33.124Z,33.07
2023-04-17T05:20:33.096Z,33.09
2023-04-17T05:21:33.101Z,33.13
2023-04-17T05:22:33.088Z,33.16
2023-04-17T05:23:33.102Z,33.14
2023-04-17T05:24:33.136Z,33.12
2023-04-17T05:25:33.096Z,33.24
2023-04-17T05:26:33.082Z,33.33
2023-04-17T05:27:33.099Z,33.24
2023-04-17T05:28:33.110Z,33.35
2023-04-17T05:29:33.097Z,33.41
2023-04-17T05:30:33.086Z,33.45
2023-04-17T05:31:33.162Z,33.40
2023-04-17T05:32:33.103Z,33.37
2023-04-17T05:33:33.091Z,33.46
2023-04-17T05:34:33.103Z,33.40
2023-04-17T05:35:33.142Z,33.62
2023-04-17T05:36:33.119Z,33.66
2023-04-17T05:37:33.112Z,33.63
2023-04-17T05:38:33.136Z,33.61
2023-04-17T05:39:33.103Z,33.64
2023-04-17T05:40:33.142Z,33.63
2023-04-17T05:41:33.247Z,33.68
2023-04-17T05:42:33.114Z,33.84
2023-04-17T05:43:33.092Z,33.65
2023-04-17T05:44:33.140Z,33.95
2023-04-17T05:45:33.132Z,34.02
2023-04-17T05:46:33.216Z,34.04
2023-04-17T05:47:33.167Z,34.02
2023-04-17T05:48:33.130Z,34.09
2023-04-17T05:49:33.125Z,34.03
2023-04-17T05:50:33.125Z,34.15
2023-04-17T05:51:33.249Z,34.24
2023-04-17T05:52:33.156Z,34.11
2023-04-17T05:53:33.185Z,34.15
2023-04-17T05:54:33.178Z,34.21
2023-04-17T05:55:33.167Z,34.28
2023-04-17T05:56:33.245Z,34.46
2023-04-17T05:57:33.181Z,34.03
2023-04-17T05:58:33.174Z,34.40
2023-04-17T05:59:33.149Z,34.52
2023-04-17T06:00:33.152Z,34.61
2023-04-17T06:01:33.168Z,34.61
2023-04-17T06:02:33.349Z,34.98
2023-04-17T06:03:33.466Z,34.80
2023-04-17T06:04:33.669Z,35.07
2023-04-17T06:05:33.395Z,35.21
2023-04-17T06:06:33.379Z,36.44
2023-04-17T06:07:33.439Z,36.13
2023-04-17T06:08:33.476Z,36.32
2023-04-17T06:09:33.591Z,35.95
2023-04-17T06:10:33.609Z,36.03
2023-04-17T06:11:33.625Z,36.08
2023-04-17T06:12:33.649Z,36.25
2023-04-17T06:13:33.690Z,36.47
2023-04-17T06:14:33.721Z,36.54
2023-04-17T06:15:33.722Z,36.60
2023-04-17T06:16:33.863Z,36.74
2023-04-17T06:17:33.907Z,37.01
2023-04-17T06:18:33.807Z,36.97
2023-04-17T06:19:33.848Z,37.08
2023-04-17T06:20:33.878Z,37.27
2023-04-17T06:21:33.868Z,37.32
2023-04-17T06:22:33.872Z,37.48
2023-04-17T06:23:33.858Z,37.69
2023-04-17T06:24:33.866Z,37.75
2023-04-17T06:25:33.881Z,37.85
2023-04-17T06:26:34.228Z,37.93
2023-04-17T06:27:36.382Z,38.00
2023-04-17T06:28:33.901Z,38.14
2023-04-17T06:29:33.876Z,38.29
2023-04-17T06:30:33.976Z,38.24
2023-04-17T06:31:33.911Z,38.29
2023-04-17T06:32:33.882Z,38.36
2023-04-17T06:33:33.896Z,38.43
2023-04-17T06:34:33.840Z,38.44
2023-04-17T06:35:33.829Z,38.63
2023-04-17T06:36:33.818Z,38.67
2023-04-17T06:37:33.830Z,38.80
2023-04-17T06:38:33.797Z,38.76
2023-04-17T06:39:33.799Z,38.81
2023-04-17T06:40:33.810Z,39.00
2023-04-17T06:41:33.767Z,39.04
2023-04-17T06:42:33.805Z,39.32
2023-04-17T06:43:33.755Z,39.26
2023-04-17T06:44:33.770Z,39.27
2023-04-17T06:45:33.783Z,39.73
2023-04-17T06:46:34.271Z,40.20
2023-04-17T06:47:33.808Z,39.84
2023-04-17T06:48:33.721Z,39.95
2023-04-17T06:49:33.744Z,40.10
2023-04-17T06:50:33.699Z,39.99
2023-04-17T06:51:33.693Z,39.79
2023-04-17T06:52:33.741Z,39.64
2023-04-17T06:53:33.699Z,39.57
2023-04-17T06:54:33.672Z,39.58
2023-04-17T06:55:33.715Z,39.50
2023-04-17T06:56:33.695Z,39.42
2023-04-17T06:57:33.662Z,39.36
2023-04-17T06:58:33.649Z,39.40
2023-04-17T06:59:33.660Z,39.37
2023-04-17T07:00:33.652Z,39.42
2023-04-17T07:01:33.656Z,39.39
2023-04-17T07:02:33.722Z,39.45
2023-04-17T07:03:33.983Z,39.41
2023-04-17T07:04:33.669Z,39.64
2023-04-17T07:05:33.609Z,39.57
2023-04-17T07:06:33.606Z,39.82
2023-04-17T07:07:33.600Z,40.05
2023-04-17T07:08:33.609Z,40.10
2023-04-17T07:09:33.579Z,40.14
2023-04-17T07:10:33.566Z,40.21
2023-04-17T07:11:33.579Z,40.26
2023-04-17T07:12:33.678Z,40.31
2023-04-17T07:13:33.564Z,40.22
2023-04-17T07:14:33.608Z,40.30
2023-04-17T07:15:33.616Z,40.36
2023-04-17T07:16:33.578Z,40.56
2023-04-17T07:17:33.574Z,40.52
2023-04-17T07:18:33.521Z,40.48
2023-04-17T07:19:33.549Z,40.49
2023-04-17T07:20:33.505Z,40.54
2023-04-17T07:21:33.499Z,40.68
2023-04-17T07:22:33.498Z,40.60
2023-04-17T07:23:33.471Z,40.67
2023-04-17T07:24:33.477Z,40.67
2023-04-17T07:25:33.509Z,40.69
2023-04-17T07:26:33.475Z,40.70
2023-04-17T07:27:33.463Z,40.75
2023-04-17T07:28:33.452Z,40.70
2023-04-17T07:29:33.437Z,40.83
2023-04-17T07:30:33.442Z,40.82
2023-04-17T07:31:33.447Z,40.88
2023-04-17T07:32:33.439Z,40.95
2023-04-17T07:33:33.429Z,40.92
2023-04-17T07:34:33.407Z,40.95
2023-04-17T07:35:33.408Z,40.94
2023-04-17T07:36:33.388Z,40.93
2023-04-17T07:37:33.413Z,40.98
2023-04-17T07:38:33.401Z,40.91
2023-04-17T07:39:33.358Z,41.01
2023-04-17T07:40:33.375Z,41.41
2023-04-17T07:41:33.370Z,41.84
2023-04-17T07:42:33.765Z,41.57
2023-04-17T07:43:33.366Z,41.79
2023-04-17T07:44:33.585Z,42.25
2023-04-17T07:45:33.432Z,42.56
2023-04-17T07:46:33.511Z,42.23
2023-04-17T07:47:33.834Z,42.45
2023-04-17T07:48:33.596Z,42.71
2023-04-17T07:49:33.630Z,42.57
2023-04-17T07:50:33.667Z,42.73
2023-04-17T07:51:33.707Z,42.75
2023-04-17T07:52:33.834Z,42.82
2023-04-17T07:53:33.834Z,42.91
2023-04-17T07:54:33.881Z,42.89
2023-04-17T07:55:33.881Z,42.89
2023-04-17T07:56:33.920Z,42.88
2023-04-17T07:57:33.964Z,42.79
2023-04-17T07:58:33.988Z,42.81
2023-04-17T07:59:34.024Z,42.89
2023-04-17T08:00:34.041Z,42.91
2023-04-17T08:01:34.085Z,42.94
2023-04-17T08:02:34.174Z,42.96
2023-04-17T08:03:34.460Z,43.01
2023-04-17T08:04:34.443Z,43.05
2023-04-17T08:05:34.177Z,43.07
2023-04-17T08:06:34.183Z,43.27
2023-04-17T08:07:34.243Z,43.34
2023-04-17T08:08:34.251Z,43.51
2023-04-17T08:09:34.274Z,43.42
2023-04-17T08:10:34.319Z,43.48
2023-04-17T08:11:40.156Z,43.56
2023-04-17T08:12:35.778Z,43.55
2023-04-17T08:13:34.377Z,43.66
2023-04-17T08:14:34.331Z,43.66
2023-04-17T08:15:34.293Z,43.68
2023-04-17T08:16:34.528Z,43.66
2023-04-17T08:17:34.488Z,43.64
2023-04-17T08:18:34.313Z,43.69
2023-04-17T08:19:34.278Z,43.87
2023-04-17T08:20:34.268Z,43.89
2023-04-17T08:21:34.288Z,43.84
2023-04-17T08:22:34.263Z,43.82
2023-04-17T08:23:34.284Z,43.83
2023-04-17T08:24:34.257Z,44.07
2023-04-17T08:25:34.240Z,44.06
2023-04-17T08:26:34.212Z,44.28
2023-04-17T08:27:34.235Z,44.01
2023-04-17T08:28:34.250Z,43.98
2023-04-17T08:29:41.526Z,43.97
2023-04-17T08:30:34.205Z,44.04
2023-04-17T08:31:34.229Z,44.15
2023-04-17T08:32:34.369Z,44.13
2023-04-17T08:33:34.177Z,44.44
2023-04-17T08:34:34.186Z,44.19
2023-04-17T08:35:34.182Z,44.06
2023-04-17T08:36:34.139Z,43.94
2023-04-17T08:37:34.293Z,43.91
2023-04-17T08:38:34.142Z,43.76
2023-04-17T08:39:34.142Z,43.81
2023-04-17T08:40:34.150Z,43.68
2023-04-17T08:41:34.155Z,43.64
2023-04-17T08:42:34.121Z,43.59
2023-04-17T08:43:34.082Z,43.54
2023-04-17T08:44:34.096Z,43.49
2023-04-17T08:45:34.090Z,43.38
2023-04-17T08:46:34.108Z,43.34
2023-04-17T08:47:34.407Z,43.25
2023-04-17T08:48:34.124Z,43.20
2023-04-17T08:49:34.082Z,43.09
2023-04-17T08:50:34.088Z,43.50
2023-04-17T08:51:34.064Z,43.50
2023-04-17T08:52:34.329Z,43.41
2023-04-17T08:53:34.080Z,43.95
2023-04-17T08:54:34.044Z,42.43
2023-04-17T08:55:34.042Z,42.73
2023-04-17T08:56:34.039Z,41.92
2023-04-17T08:57:34.008Z,42.05
2023-04-17T08:58:34.036Z,41.26
2023-04-17T08:59:34.035Z,41.24
2023-04-17T09:00:34.012Z,40.78
2023-04-17T09:01:34.106Z,40.69
2023-04-17T09:02:34.040Z,40.05
2023-04-17T09:03:34.170Z,40.63
2023-04-17T09:04:34.124Z,39.89
2023-04-17T09:05:33.985Z,39.91
2023-04-17T09:06:33.972Z,39.44
2023-04-17T09:07:34.345Z,39.09
2023-04-17T09:08:33.949Z,38.77
2023-04-17T09:09:33.973Z,38.53
2023-04-17T09:10:33.923Z,38.02
2023-04-17T09:11:33.910Z,37.77
2023-04-17T09:12:33.926Z,38.62
2023-04-17T09:13:33.939Z,39.43
2023-04-17T09:14:33.924Z,39.59
2023-04-17T09:15:34.002Z,39.92
2023-04-17T09:16:33.926Z,40.15
2023-04-17T09:17:33.891Z,40.29
2023-04-17T09:18:33.942Z,40.48
2023-04-17T09:19:35.197Z,40.62
2023-04-17T09:20:34.060Z,40.91
2023-04-17T09:21:34.061Z,40.92
2023-04-17T09:22:34.117Z,41.10
2023-04-17T09:23:34.227Z,41.12
2023-04-17T09:24:34.188Z,41.37
2023-04-17T09:25:34.204Z,41.55
2023-04-17T09:26:34.229Z,41.62
2023-04-17T09:27:34.382Z,41.72
2023-04-17T09:28:34.277Z,41.71
2023-04-17T09:29:34.280Z,41.94
2023-04-17T09:30:34.520Z,42.07
2023-04-17T09:31:34.467Z,42.12
2023-04-17T09:32:34.397Z,42.20
2023-04-17T09:33:34.290Z,42.42
2023-04-17T09:34:34.337Z,42.61
2023-04-17T09:35:35.836Z,42.61
2023-04-17T09:36:34.413Z,42.79
2023-04-17T09:37:34.295Z,43.00
2023-04-17T09:38:34.301Z,43.12
2023-04-17T09:39:34.287Z,43.08
2023-04-17T09:40:34.308Z,42.96
2023-04-17T09:41:34.307Z,42.93
2023-04-17T09:42:34.373Z,42.78
2023-04-17T09:43:34.253Z,42.64
2023-04-17T09:44:34.303Z,42.62
2023-04-17T09:45:34.243Z,42.57
2023-04-17T09:46:34.370Z,42.56
2023-04-17T09:47:34.391Z,42.52
2023-04-17T09:48:34.213Z,42.54
2023-04-17T09:49:34.248Z,42.51
2023-04-17T09:50:35.882Z,42.54
2023-04-17T09:51:34.217Z,42.57
2023-04-17T09:52:34.236Z,42.56
2023-04-17T09:53:34.181Z,42.52
2023-04-17T09:54:34.205Z,42.52
2023-04-17T09:55:34.179Z,42.53
2023-04-17T09:56:34.199Z,42.52
2023-04-17T09:57:34.169Z,42.50
2023-04-17T09:58:34.160Z,42.52
2023-04-17T09:59:34.161Z,42.48
2023-04-17T10:00:34.187Z,42.42
2023-04-17T10:01:34.146Z,42.40
2023-04-17T10:02:34.220Z,42.38
2023-04-17T10:03:37.128Z,42.35
2023-04-17T10:04:34.141Z,42.34
2023-04-17T10:05:34.113Z,42.34
2023-04-17T10:06:34.202Z,42.31
2023-04-17T10:07:34.145Z,42.28
2023-04-17T10:08:34.268Z,42.26
2023-04-17T10:09:34.090Z,42.23
2023-04-17T10:10:34.366Z,42.19
2023-04-17T10:11:34.126Z,42.17
2023-04-17T10:12:34.896Z,42.13
2023-04-17T10:13:34.062Z,42.16
2023-04-17T10:14:34.094Z,42.11
2023-04-17T10:15:34.112Z,42.06
2023-04-17T10:16:34.125Z,42.03
2023-04-17T10:17:34.506Z,41.98
2023-04-17T10:18:34.045Z,41.95
2023-04-17T10:19:34.041Z,41.91
2023-04-17T10:20:33.997Z,41.88
2023-04-17T10:21:34.000Z,41.87
2023-04-17T10:22:34.014Z,41.86
2023-04-17T10:23:33.970Z,41.80
2023-04-17T10:24:33.989Z,41.78
2023-04-17T10:25:33.985Z,41.74
2023-04-17T10:26:33.953Z,41.77
2023-04-17T10:27:33.996Z,41.75
2023-04-17T10:28:33.963Z,41.67
2023-04-17T10:29:33.976Z,41.68
2023-04-17T10:30:33.977Z,41.66
2023-04-17T10:31:34.026Z,41.60
2023-04-17T10:32:34.004Z,41.58
2023-04-17T10:33:33.924Z,41.54
2023-04-17T10:34:33.917Z,41.49
2023-04-17T10:35:33.944Z,41.50
2023-04-17T10:36:33.945Z,41.50
2023-04-17T10:37:34.357Z,41.65
2023-04-17T10:38:33.980Z,41.46
2023-04-17T10:39:34.094Z,41.55
2023-04-17T10:40:34.127Z,41.66
2023-04-17T10:41:34.158Z,41.61
2023-04-17T10:42:34.216Z,41.53
2023-04-17T10:43:34.283Z,41.55
2023-04-17T10:44:34.351Z,41.53
2023-04-17T10:45:34.371Z,41.48
2023-04-17T10:46:34.487Z,41.50
2023-04-17T10:47:34.507Z,41.51
2023-04-17T10:48:34.534Z,41.54
2023-04-17T10:49:34.552Z,41.60
2023-04-17T10:50:35.358Z,41.67
2023-04-17T10:51:34.639Z,41.65
2023-04-17T10:52:34.861Z,41.69
2023-04-17T10:53:34.761Z,41.68
2023-04-17T10:54:34.784Z,41.71
2023-04-17T10:55:34.811Z,41.81
2023-04-17T10:56:34.858Z,41.88
2023-04-17T10:57:34.919Z,41.88
2023-04-17T10:58:34.952Z,41.97
2023-04-17T10:59:35.865Z,42.00
2023-04-17T11:00:35.045Z,42.02
2023-04-17T11:01:35.121Z,42.09
2023-04-17T11:02:35.179Z,42.15
2023-04-17T11:03:35.169Z,42.23
2023-04-17T11:04:35.296Z,42.24
2023-04-17T11:05:35.207Z,42.26
2023-04-17T11:06:35.258Z,42.31
2023-04-17T11:07:35.321Z,42.34
2023-04-17T11:08:35.326Z,42.47
2023-04-17T11:09:35.353Z,42.46
2023-04-17T11:10:35.366Z,42.57
2023-04-17T11:12:35.395Z,42.60
2023-04-17T11:13:35.353Z,42.66
2023-04-17T11:14:35.363Z,42.74
2023-04-17T11:15:35.360Z,42.80
2023-04-17T11:16:35.355Z,42.82
2023-04-17T11:17:35.400Z,42.84
2023-04-17T11:18:35.366Z,42.85
2023-04-17T11:19:35.341Z,42.90
2023-04-17T11:20:35.319Z,43.04
2023-04-17T11:21:35.316Z,42.97
2023-04-17T11:22:35.308Z,42.98
2023-04-17T11:23:35.309Z,43.03
2023-04-17T11:24:35.304Z,43.08
2023-04-17T11:25:35.310Z,43.18
2023-04-17T11:26:35.283Z,43.14
2023-04-17T11:27:35.286Z,43.17
2023-04-17T11:28:35.313Z,43.30
2023-04-17T11:29:35.253Z,43.31
2023-04-17T11:30:35.375Z,43.30
2023-04-17T11:31:35.388Z,43.22
2023-04-17T11:32:35.409Z,43.15
2023-04-17T11:33:35.890Z,43.28
2023-04-17T11:34:35.440Z,43.49
2023-04-17T11:35:35.473Z,43.39
2023-04-17T11:36:35.538Z,43.19
2023-04-17T11:37:35.553Z,43.11
2023-04-17T11:38:35.880Z,43.08
2023-04-17T11:39:35.647Z,42.98
2023-04-17T11:40:35.711Z,43.05
2023-04-17T11:41:35.725Z,43.00
2023-04-17T11:42:35.768Z,42.97
2023-04-17T11:43:35.783Z,43.02
2023-04-17T11:44:35.819Z,42.98
2023-04-17T11:45:35.874Z,42.98
2023-04-17T11:46:35.991Z,42.97
2023-04-17T11:47:36.019Z,43.00
2023-04-17T11:48:36.389Z,43.05
2023-04-17T11:49:36.080Z,43.09
2023-04-17T11:50:36.206Z,43.15
2023-04-17T11:51:36.135Z,43.14
2023-04-17T11:52:36.193Z,43.19
2023-04-17T11:53:36.279Z,43.16
2023-04-17T11:54:36.284Z,43.15
2023-04-17T11:55:36.362Z,43.19
2023-04-17T11:56:36.408Z,43.25
2023-04-17T11:57:36.441Z,43.23
2023-04-17T11:58:36.485Z,43.28
2023-04-17T11:59:36.516Z,43.25
2023-04-17T12:00:36.612Z,43.25
2023-04-17T12:01:36.595Z,43.31
2023-04-17T12:02:36.697Z,43.29
2023-04-17T12:03:37.174Z,43.33
2023-04-17T12:04:37.111Z,43.39
2023-04-17T12:05:36.806Z,43.49
2023-04-17T12:06:36.835Z,43.60
2023-04-17T12:07:36.888Z,43.62
2023-04-17T12:08:36.895Z,43.67
2023-04-17T12:09:36.944Z,43.67
2023-04-17T12:10:36.991Z,43.75
2023-04-17T12:11:37.040Z,43.85
2023-04-17T12:12:37.071Z,43.93
2023-04-17T12:13:37.092Z,43.81
2023-04-17T12:14:37.157Z,43.74
2023-04-17T12:15:37.166Z,43.57
2023-04-17T12:16:37.357Z,43.45
2023-04-17T12:17:37.297Z,43.48
2023-04-17T12:18:37.317Z,43.46
2023-04-17T12:19:37.324Z,43.43
2023-04-17T12:20:37.388Z,43.40
2023-04-17T12:21:37.451Z,43.45
2023-04-17T12:22:37.465Z,43.46
2023-04-17T12:23:37.512Z,43.48
2023-04-17T12:24:37.525Z,43.44
2023-04-17T12:25:37.583Z,43.41
2023-04-17T12:26:37.659Z,43.43
2023-04-17T12:27:37.839Z,43.41
2023-04-17T12:28:37.731Z,43.41
2023-04-17T12:30:38.778Z,43.39
2023-04-17T12:31:37.831Z,43.39
2023-04-17T12:32:37.836Z,43.37
2023-04-17T12:33:37.737Z,43.34
2023-04-17T12:34:37.745Z,43.35
2023-04-17T12:35:37.742Z,43.36
2023-04-17T12:36:37.739Z,43.45
2023-04-17T12:37:37.733Z,43.45
2023-04-17T12:38:37.717Z,43.42
2023-04-17T12:39:37.730Z,43.42
2023-04-17T12:40:37.785Z,43.40
2023-04-17T12:41:37.805Z,43.40
2023-04-17T12:42:48.359Z,43.42
2023-04-17T12:43:38.858Z,43.43
2023-04-17T12:44:37.942Z,43.49
2023-04-17T12:45:38.337Z,43.45
2023-04-17T12:46:37.866Z,43.50
2023-04-17T12:47:37.844Z,43.46
2023-04-17T12:48:37.850Z,43.50
2023-04-17T12:49:37.819Z,43.57
2023-04-17T12:50:37.844Z,43.54
2023-04-17T12:51:38.077Z,43.53
2023-04-17T12:52:37.866Z,43.57
2023-04-17T12:53:37.926Z,43.53
2023-04-17T12:54:37.967Z,43.49